createdAt,value
2024-02-07T00:00:48.592Z,7.80
2024-02-07T00:03:51.401Z,10.27
2024-02-07T00:06:53.195Z,5.53
2024-02-07T00:09:54.966Z,7.97
2024-02-07T00:12:56.723Z,5.43
2024-02-07T00:15:58.536Z,5.50
2024-02-07T00:19:00.343Z,5.37
2024-02-07T00:22:02.256Z,5.27
2024-02-07T00:25:04.406Z,15.07
2024-02-07T00:28:08.044Z,8.93
2024-02-07T00:31:09.912Z,7.53
2024-02-07T00:34:11.717Z,6.70
2024-02-07T00:37:13.567Z,6.33
2024-02-07T00:40:15.936Z,13.13
2024-02-07T00:43:17.896Z,7.40
2024-02-07T00:46:19.790Z,5.20
2024-02-07T00:49:21.767Z,9.07
2024-02-07T00:52:23.899Z,9.87
2024-02-07T00:55:25.689Z,0.53
2024-02-07T00:58:27.645Z,2.43
2024-02-07T01:01:30.255Z,1.67
2024-02-07T01:04:32.273Z,2.50
2024-02-07T01:07:34.072Z,2.53
2024-02-07T01:10:37.292Z,0.27
2024-02-07T01:13:39.199Z,5.77
2024-02-07T01:16:41.718Z,9.60
2024-02-07T01:19:43.531Z,4.13
2024-02-07T01:22:45.459Z,0.43
2024-02-07T01:25:47.221Z,5.97
2024-02-07T01:28:50.784Z,6.13
2024-02-07T01:31:53.299Z,1.23
2024-02-07T01:34:55.181Z,1.10
2024-02-07T01:38:08.694Z,0.43
2024-02-07T01:41:10.675Z,2.90
2024-02-07T01:44:12.440Z,3.23
2024-02-07T01:47:15.196Z,2.40
2024-02-07T01:50:17.819Z,2.33
2024-02-07T01:53:20.658Z,3.57
2024-02-07T01:56:22.890Z,3.13
2024-02-07T01:59:26.174Z,3.13
2024-02-07T02:02:27.984Z,3.83
2024-02-07T02:05:29.723Z,2.30
2024-02-07T02:08:31.513Z,3.63
2024-02-07T02:11:36.620Z,3.50
2024-02-07T02:14:38.516Z,0.73
2024-02-07T02:17:40.328Z,3.20
2024-02-07T02:20:45.113Z,0.53
2024-02-07T02:23:52.907Z,2.53
2024-02-07T02:27:11.851Z,2.93
2024-02-07T02:30:21.049Z,2.63
2024-02-07T02:33:25.980Z,1.60
2024-02-07T02:36:28.209Z,3.87
2024-02-07T02:39:30.458Z,1.17
2024-02-07T02:42:33.222Z,2.67
2024-02-07T02:45:34.951Z,6.13
2024-02-07T02:48:37.042Z,2.33
2024-02-07T02:51:38.802Z,2.17
2024-02-07T02:54:40.611Z,2.13
2024-02-07T02:57:43.742Z,2.00
2024-02-07T03:00:51.329Z,0.83
2024-02-07T03:03:56.082Z,4.23
2024-02-07T03:07:14.275Z,2.23
2024-02-07T03:10:17.901Z,6.93
2024-02-07T03:13:19.847Z,1.00
2024-02-07T03:16:21.749Z,5.30
2024-02-07T03:19:23.551Z,1.77
2024-02-07T03:22:25.404Z,0.90
2024-02-07T03:25:27.547Z,9.73
2024-02-07T03:28:32.185Z,1.73
2024-02-07T03:31:38.083Z,5.10
2024-02-07T03:34:39.991Z,0.97
2024-02-07T03:37:42.830Z,1.67
2024-02-07T03:40:46.542Z,2.33
2024-02-07T03:43:49.043Z,2.60
2024-02-07T03:46:51.450Z,2.43
2024-02-07T03:49:53.779Z,2.40
2024-02-07T03:52:56.325Z,0.60
2024-02-07T03:55:58.612Z,4.60
2024-02-07T03:59:00.627Z,7.17
2024-02-07T04:02:02.690Z,5.23
2024-02-07T04:05:05.624Z,2.63
2024-02-07T04:08:08.514Z,3.40
2024-02-07T04:11:13.320Z,0.63
2024-02-07T04:14:15.027Z,3.83
2024-02-07T04:17:35.722Z,4.10
2024-02-07T04:20:55.980Z,3.67
2024-02-07T04:24:16.443Z,3.03
2024-02-07T04:27:36.644Z,0.77
2024-02-07T04:30:57.428Z,1.40
2024-02-07T04:34:18.093Z,0.43
2024-02-07T04:37:38.548Z,1.60
2024-02-07T04:40:58.981Z,2.30
2024-02-07T04:44:19.502Z,3.60
2024-02-07T04:47:39.995Z,1.40
2024-02-07T04:51:00.685Z,0.30
2024-02-07T04:54:21.321Z,0.83
2024-02-07T04:57:41.761Z,2.10
2024-02-07T05:01:02.298Z,0.57
2024-02-07T05:04:22.648Z,7.43
2024-02-07T05:07:43.074Z,1.07
2024-02-07T05:11:03.728Z,0.30
2024-02-07T05:14:24.369Z,4.33
2024-02-07T05:17:27.313Z,3.27
2024-02-07T05:20:29.521Z,4.93
2024-02-07T05:23:31.658Z,0.87
2024-02-07T05:26:36.272Z,0.70
2024-02-07T05:29:38.104Z,0.30
2024-02-07T05:32:40.163Z,4.33
2024-02-07T05:35:42.022Z,3.63
2024-02-07T05:38:44.318Z,1.80
2024-02-07T05:41:47.073Z,2.73
2024-02-07T05:44:49.849Z,2.50
2024-02-07T05:47:51.645Z,6.93
2024-02-07T05:50:54.485Z,3.03
2024-02-07T05:53:56.281Z,3.70
2024-02-07T05:56:58.115Z,1.57
2024-02-07T06:00:00.988Z,2.03
2024-02-07T06:03:06.922Z,1.17
2024-02-07T06:06:08.735Z,0.37
2024-02-07T06:09:10.524Z,2.93
2024-02-07T06:12:13.635Z,6.03
2024-02-07T06:15:15.546Z,2.93
2024-02-07T06:18:20.743Z,2.23
2024-02-07T06:21:22.567Z,1.17
2024-02-07T06:24:24.631Z,0.43
2024-02-07T06:27:26.630Z,1.03
2024-02-07T06:30:29.039Z,0.93
2024-02-07T06:33:31.197Z,1.50
2024-02-07T06:36:34.095Z,5.73
2024-02-07T06:39:37.225Z,2.57
2024-02-07T06:42:39.520Z,0.67
2024-02-07T06:45:41.764Z,2.73
2024-02-07T06:48:44.264Z,1.73
2024-02-07T06:51:47.298Z,4.60
2024-02-07T06:54:49.562Z,2.93
2024-02-07T06:57:51.426Z,5.57
2024-02-07T07:00:54.456Z,1.63
2024-02-07T07:03:58.116Z,3.63
2024-02-07T07:06:59.883Z,4.23
2024-02-07T07:10:01.754Z,1.67
2024-02-07T07:13:03.602Z,1.40
2024-02-07T07:16:07.313Z,3.50
2024-02-07T07:19:12.590Z,8.17
2024-02-07T07:22:15.850Z,1.43
2024-02-07T07:25:18.021Z,5.00
2024-02-07T07:28:19.889Z,3.77
2024-02-07T07:31:21.678Z,1.13
2024-02-07T07:34:23.597Z,7.00
2024-02-07T07:37:25.556Z,3.87
2024-02-07T07:40:28.995Z,6.60
2024-02-07T07:43:30.863Z,4.03
2024-02-07T07:46:32.758Z,4.93
2024-02-07T07:49:34.924Z,5.60
2024-02-07T07:52:36.760Z,3.73
2024-02-07T07:55:38.724Z,3.07
2024-02-07T07:58:48.839Z,2.87
2024-02-07T08:01:59.513Z,1.83
2024-02-07T08:05:01.469Z,1.27
2024-02-07T08:08:05.224Z,3.70
2024-02-07T08:11:07.348Z,1.73
2024-02-07T08:14:09.094Z,5.20
2024-02-07T08:17:16.713Z,2.13
2024-02-07T08:20:23.392Z,2.70
2024-02-07T08:23:25.926Z,2.47
2024-02-07T08:26:27.721Z,4.33
2024-02-07T08:29:30.595Z,9.97
2024-02-07T08:32:33.288Z,4.97
2024-02-07T08:35:35.229Z,1.77
2024-02-07T08:38:37.140Z,5.10
2024-02-07T08:41:42.015Z,0.87
2024-02-07T08:44:44.069Z,3.93
2024-02-07T08:47:47.094Z,4.63
2024-02-07T08:50:48.985Z,2.17
2024-02-07T08:53:50.758Z,7.13
2024-02-07T08:56:52.570Z,3.37
2024-02-07T08:59:54.583Z,2.73
2024-02-07T09:02:56.414Z,2.93
2024-02-07T09:05:58.298Z,3.83
2024-02-07T09:09:00.315Z,8.30
2024-02-07T09:12:02.034Z,4.77
2024-02-07T09:15:04.031Z,2.03
2024-02-07T09:18:06.195Z,4.17
2024-02-07T09:21:08.208Z,2.97
2024-02-07T09:24:10.190Z,5.83
2024-02-07T09:27:12.694Z,2.30
2024-02-07T09:30:14.930Z,4.13
2024-02-07T09:33:16.902Z,5.80
2024-02-07T09:36:19.432Z,8.50
2024-02-07T09:39:21.827Z,5.00
2024-02-07T09:42:25.179Z,5.63
2024-02-07T09:45:33.454Z,6.80
2024-02-07T09:48:35.518Z,18.27
2024-02-07T09:51:37.558Z,4.17
2024-02-07T09:54:39.888Z,6.53
2024-02-07T09:57:42.012Z,3.67
2024-02-07T10:00:43.926Z,3.43
2024-02-07T10:03:48.816Z,4.43
2024-02-07T10:06:50.713Z,5.07
2024-02-07T10:09:54.016Z,7.40
2024-02-07T10:12:57.983Z,3.60
2024-02-07T10:16:00.060Z,8.00
2024-02-07T10:19:01.888Z,9.03
2024-02-07T10:22:18.791Z,5.03
2024-02-07T10:25:21.293Z,8.67
2024-02-07T10:28:26.226Z,4.50
2024-02-07T10:31:28.312Z,9.17
2024-02-07T10:34:30.299Z,3.97
2024-02-07T10:37:44.694Z,14.03
2024-02-07T10:40:47.168Z,5.37
2024-02-07T10:43:49.060Z,3.90
2024-02-07T10:46:59.435Z,3.03
2024-02-07T10:50:03.772Z,4.17
2024-02-07T10:53:05.689Z,12.20
2024-02-07T10:56:14.152Z,10.87
2024-02-07T10:59:16.256Z,5.57
2024-02-07T11:02:18.546Z,4.20
2024-02-07T11:05:23.229Z,5.53
2024-02-07T11:08:26.959Z,6.07
2024-02-07T11:11:31.520Z,3.27
2024-02-07T11:14:33.541Z,3.57
2024-02-07T11:17:35.683Z,8.07
2024-02-07T11:20:38.048Z,7.40
2024-02-07T11:23:41.683Z,6.63
2024-02-07T11:26:43.659Z,5.87
2024-02-07T11:29:46.588Z,7.47
2024-02-07T11:32:49.481Z,4.83
2024-02-07T11:35:52.873Z,9.63
2024-02-07T11:38:56.102Z,8.93
2024-02-07T11:41:58.267Z,3.77
2024-02-07T11:45:01.454Z,6.30
2024-02-07T11:48:03.517Z,9.10
2024-02-07T11:51:12.771Z,10.13
2024-02-07T11:54:21.837Z,9.33
2024-02-07T11:57:24.874Z,6.73
2024-02-07T12:00:27.898Z,9.40
2024-02-07T12:03:29.938Z,5.87
2024-02-07T12:06:33.186Z,10.27
2024-02-07T12:09:35.325Z,5.57
2024-02-07T12:12:37.918Z,8.23
2024-02-07T12:15:41.488Z,10.37
2024-02-07T12:18:44.908Z,13.87
2024-02-07T12:21:47.629Z,8.27
2024-02-07T12:24:51.587Z,11.77
2024-02-07T12:27:53.626Z,4.40
2024-02-07T12:30:56.784Z,7.43
2024-02-07T12:33:58.933Z,5.27
2024-02-07T12:37:00.951Z,5.70
2024-02-07T12:40:03.440Z,4.30
2024-02-07T12:43:05.788Z,11.30
2024-02-07T12:46:08.757Z,11.13
2024-02-07T12:49:11.440Z,12.77
2024-02-07T12:52:14.627Z,4.20
2024-02-07T12:55:18.028Z,9.93
2024-02-07T12:58:20.169Z,6.50
2024-02-07T13:01:27.401Z,6.37
2024-02-07T13:04:32.212Z,5.87
2024-02-07T13:07:34.886Z,13.07
2024-02-07T13:10:39.254Z,6.63
2024-02-07T13:13:41.324Z,10.03
2024-02-07T13:16:44.886Z,7.40
2024-02-07T13:19:46.770Z,8.03
2024-02-07T13:22:48.664Z,5.10
2024-02-07T13:25:55.571Z,10.50
2024-02-07T13:28:58.994Z,12.63
2024-02-07T13:32:01.046Z,7.10
2024-02-07T13:35:03.624Z,9.77
2024-02-07T13:38:07.470Z,8.90
2024-02-07T13:41:11.440Z,9.77
2024-02-07T13:44:13.952Z,19.63
2024-02-07T13:47:17.157Z,8.37
2024-02-07T13:50:19.757Z,8.03
2024-02-07T13:53:21.908Z,3.73
2024-02-07T13:56:24.129Z,6.27
2024-02-07T13:59:27.289Z,4.33
2024-02-07T14:02:29.543Z,11.50
2024-02-07T14:05:31.435Z,13.10
2024-02-07T14:08:33.555Z,4.43
2024-02-07T14:11:42.794Z,4.67
2024-02-07T14:14:45.617Z,5.00
2024-02-07T14:17:47.925Z,4.20
2024-02-07T14:20:50.555Z,10.67
2024-02-07T14:23:53.100Z,9.03
2024-02-07T14:26:55.737Z,12.83
2024-02-07T14:29:58.418Z,3.10
2024-02-07T14:33:00.634Z,8.20
2024-02-07T14:36:02.732Z,10.60
2024-02-07T14:39:04.853Z,9.43
2024-02-07T14:42:07.554Z,7.10
2024-02-07T14:45:14.592Z,16.93
2024-02-07T14:48:16.912Z,7.83
2024-02-07T14:51:19.170Z,11.80
2024-02-07T14:54:21.584Z,6.67
2024-02-07T14:57:23.809Z,11.03
2024-02-07T15:00:26.194Z,5.30
2024-02-07T15:03:28.826Z,6.73
2024-02-07T15:06:31.272Z,7.20
2024-02-07T15:09:33.398Z,6.60
2024-02-07T15:12:35.429Z,6.23
2024-02-07T15:15:40.552Z,8.80
2024-02-07T15:18:44.998Z,5.53
2024-02-07T15:21:47.056Z,7.13
2024-02-07T15:24:49.444Z,9.73
2024-02-07T15:27:51.505Z,4.97
2024-02-07T15:30:55.435Z,11.10
2024-02-07T15:33:57.690Z,8.07
2024-02-07T15:37:00.985Z,5.10
2024-02-07T15:40:03.324Z,10.53
2024-02-07T15:43:05.686Z,6.93
2024-02-07T15:46:08.767Z,10.63
2024-02-07T15:49:11.597Z,6.87
2024-02-07T15:52:13.792Z,7.13
2024-02-07T15:55:19.432Z,13.07
2024-02-07T15:58:22.116Z,9.23
2024-02-07T16:01:33.712Z,11.80
2024-02-07T16:04:43.393Z,13.77
2024-02-07T16:07:46.049Z,12.07
2024-02-07T16:10:51.429Z,8.80
2024-02-07T16:13:53.540Z,12.90
2024-02-07T16:17:02.620Z,10.17
2024-02-07T16:20:05.373Z,5.77
2024-02-07T16:23:08.387Z,8.40
2024-02-07T16:26:10.721Z,11.73
2024-02-07T16:29:13.682Z,16.97
2024-02-07T16:32:15.625Z,11.77
2024-02-07T16:35:18.670Z,8.30
2024-02-07T16:38:20.515Z,5.50
2024-02-07T16:41:22.318Z,6.70
2024-02-07T16:44:24.947Z,10.93
2024-02-07T16:47:26.760Z,11.50
2024-02-07T16:50:29.028Z,15.00
2024-02-07T16:53:30.844Z,6.73
2024-02-07T16:56:33.065Z,10.57
2024-02-07T16:59:35.005Z,13.13
2024-02-07T17:02:36.762Z,21.70
2024-02-07T17:05:38.664Z,11.47
2024-02-07T17:08:40.400Z,26.10
2024-02-07T17:11:42.695Z,17.50
2024-02-07T17:14:46.474Z,16.97
2024-02-07T17:17:48.407Z,18.00
2024-02-07T17:20:52.470Z,13.80
2024-02-07T17:23:57.496Z,13.93
2024-02-07T17:27:01.488Z,10.60
2024-02-07T17:30:05.491Z,24.73
2024-02-07T17:33:08.950Z,14.07
2024-02-07T17:36:12.002Z,21.23
2024-02-07T17:39:14.987Z,13.00
2024-02-07T17:42:19.587Z,9.63
2024-02-07T17:45:28.491Z,12.33
2024-02-07T17:48:31.141Z,9.40
2024-02-07T17:51:33.509Z,23.30
2024-02-07T17:54:36.042Z,13.47
2024-02-07T17:57:38.366Z,12.07
2024-02-07T18:00:40.760Z,15.43
2024-02-07T18:03:43.053Z,13.60
2024-02-07T18:06:45.441Z,13.27
2024-02-07T18:09:47.953Z,9.63
2024-02-07T18:12:50.301Z,9.27
2024-02-07T18:15:52.333Z,12.77
2024-02-07T18:18:54.812Z,14.37
2024-02-07T18:21:56.879Z,14.73
2024-02-07T18:24:58.938Z,12.63
2024-02-07T18:28:00.779Z,5.70
2024-02-07T18:31:02.873Z,10.00
2024-02-07T18:34:05.367Z,10.80
2024-02-07T18:37:09.716Z,11.13
2024-02-07T18:40:13.368Z,10.57
2024-02-07T18:43:15.258Z,12.77
2024-02-07T18:46:18.568Z,12.70
2024-02-07T18:49:21.135Z,8.17
2024-02-07T18:52:24.436Z,8.03
2024-02-07T18:55:27.501Z,9.57
2024-02-07T18:58:30.735Z,7.70
2024-02-07T19:01:36.559Z,21.03
2024-02-07T19:04:39.532Z,16.50
2024-02-07T19:07:41.529Z,15.33
2024-02-07T19:10:43.690Z,15.87
2024-02-07T19:13:46.211Z,14.20
2024-02-07T19:16:48.543Z,15.70
2024-02-07T19:19:50.910Z,10.57
2024-02-07T19:22:53.386Z,14.70
2024-02-07T19:25:58.331Z,16.60
2024-02-07T19:29:01.175Z,10.47
2024-02-07T19:32:05.254Z,14.63
2024-02-07T19:35:08.269Z,12.20
2024-02-07T19:38:10.419Z,10.70
2024-02-07T19:41:12.517Z,12.50
2024-02-07T19:44:14.824Z,9.97
2024-02-07T19:47:17.512Z,12.87
2024-02-07T19:50:20.656Z,12.60
2024-02-07T19:53:23.404Z,15.40
2024-02-07T19:56:25.855Z,8.30
2024-02-07T19:59:27.729Z,8.90
2024-02-07T20:02:29.903Z,9.47
2024-02-07T20:05:32.426Z,9.30
2024-02-07T20:08:34.944Z,10.13
2024-02-07T20:11:37.754Z,8.70
2024-02-07T20:14:39.981Z,7.77
2024-02-07T20:17:42.314Z,5.97
2024-02-07T20:20:44.332Z,4.77
2024-02-07T20:23:46.091Z,8.70
2024-02-07T20:26:47.859Z,11.03
2024-02-07T20:29:49.641Z,8.67
2024-02-07T20:32:52.147Z,7.40
2024-02-07T20:35:54.225Z,5.50
2024-02-07T20:38:56.410Z,9.70
2024-02-07T20:41:58.579Z,9.63
2024-02-07T20:45:00.935Z,12.87
2024-02-07T20:48:03.220Z,7.00
2024-02-07T20:51:07.911Z,5.97
2024-02-07T20:54:10.187Z,5.70
2024-02-07T20:57:15.041Z,7.30
2024-02-07T21:00:17.396Z,9.50
2024-02-07T21:03:19.247Z,16.43
2024-02-07T21:06:23.364Z,21.97
2024-02-07T21:09:25.266Z,21.73
2024-02-07T21:12:27.039Z,18.80
2024-02-07T21:15:28.861Z,18.50
2024-02-07T21:18:30.755Z,12.87
2024-02-07T21:21:32.541Z,9.97
2024-02-07T21:24:34.969Z,6.93
2024-02-07T21:27:36.919Z,7.57
2024-02-07T21:30:39.563Z,7.13
2024-02-07T21:33:42.405Z,13.67
2024-02-07T21:36:44.276Z,8.60
2024-02-07T21:39:46.005Z,7.03
2024-02-07T21:42:47.791Z,15.33
2024-02-07T21:45:49.609Z,10.87
2024-02-07T21:48:52.528Z,8.17
2024-02-07T21:51:54.695Z,10.10
2024-02-07T21:54:56.488Z,10.13
2024-02-07T21:57:58.265Z,11.50
2024-02-07T22:01:00.040Z,15.00
2024-02-07T22:04:01.906Z,4.77
2024-02-07T22:07:04.006Z,9.00
2024-02-07T22:10:06.936Z,12.70
2024-02-07T22:13:08.740Z,11.97
2024-02-07T22:16:10.923Z,15.37
2024-02-07T22:19:12.806Z,6.33
2024-02-07T22:22:14.656Z,6.43
2024-02-07T22:25:16.880Z,5.70
2024-02-07T22:28:18.817Z,3.80
2024-02-07T22:31:23.996Z,5.33
2024-02-07T22:34:25.903Z,4.07
2024-02-07T22:37:27.888Z,5.80
2024-02-07T22:40:29.611Z,6.97
2024-02-07T22:43:31.419Z,10.53
2024-02-07T22:46:33.217Z,8.87
2024-02-07T22:49:37.023Z,7.43
2024-02-07T22:52:38.931Z,11.40
2024-02-07T22:55:41.739Z,8.97
2024-02-07T22:58:43.661Z,4.67
2024-02-07T23:01:45.471Z,7.50
2024-02-07T23:04:47.309Z,11.47
2024-02-07T23:07:50.444Z,5.10
2024-02-07T23:10:52.320Z,7.97
2024-02-07T23:13:54.252Z,9.80
2024-02-07T23:16:56.073Z,7.50
2024-02-07T23:19:57.959Z,8.90
2024-02-07T23:23:00.127Z,8.50
2024-02-07T23:26:02.002Z,7.83
2024-02-07T23:29:04.125Z,12.33
2024-02-07T23:32:06.772Z,4.83
2024-02-07T23:35:09.319Z,8.40
2024-02-07T23:38:11.163Z,10.70
2024-02-07T23:41:13.186Z,4.37
2024-02-07T23:44:15.047Z,12.13
2024-02-07T23:47:16.980Z,4.27
2024-02-07T23:50:18.828Z,8.73
2024-02-07T23:53:20.669Z,4.43
2024-02-07T23:56:23.034Z,5.47
2024-02-07T23:59:24.999Z,7.33
